Time;durP1;ratioP1;P1;durP2;ratioP2;P2;SDS_P1;SDS_P2;PMS_P1;PMS_P2;Temp;Humidity;BMP_temperature;BMP_pressure;BME280_temperature;BME280_humidity;BME280_pressure;Samples;Min_cycle;Max_cycle;Signal;HPM_P1;HPM_P2
2021/04/04 00:01:15;;;;;;;21.70;7.77;;;4.50;1.00;;;;;;5019873;28;20463;-46
2021/04/04 00:03:41;;;;;;;19.30;6.27;;;4.50;1.00;;;;;;5018576;28;20476;-46
2021/04/04 00:06:08;;;;;;;14.97;7.83;;;4.40;1.00;;;;;;5019527;28;20495;-43
2021/04/04 00:08:38;;;;;;;22.73;6.17;;;4.40;1.00;;;;;;5018960;28;20499;-46
2021/04/04 00:11:05;;;;;;;24.00;6.20;;;4.40;1.00;;;;;;5019546;28;20530;-45
2021/04/04 00:13:32;;;;;;;15.73;5.53;;;4.40;1.00;;;;;;5012244;28;20467;-48
2021/04/04 00:15:59;;;;;;;18.17;6.63;;;4.40;1.00;;;;;;5005489;28;20468;-43
2021/04/04 00:18:27;;;;;;;21.80;7.37;;;4.40;1.00;;;;;;5011483;28;20457;-42
2021/04/04 00:20:54;;;;;;;16.50;5.90;;;4.40;1.00;;;;;;5005976;28;20510;-44
2021/04/04 00:23:21;;;;;;;17.90;7.17;;;4.40;1.00;;;;;;5019272;28;20460;-43
2021/04/04 00:25:47;;;;;;;19.53;7.03;;;4.30;1.00;;;;;;5018869;28;20474;-44
2021/04/04 00:28:15;;;;;;;16.80;7.00;;;4.30;1.00;;;;;;5018348;28;20503;-42
2021/04/04 00:30:41;;;;;;;14.87;6.60;;;4.30;1.00;;;;;;5019391;28;20475;-43
2021/04/04 00:33:08;;;;;;;15.53;6.63;;;4.40;1.00;;;;;;5012191;28;20476;-46
2021/04/04 00:35:34;;;;;;;18.83;7.37;;;4.40;1.00;;;;;;5016935;28;20474;-50
2021/04/04 00:38:04;;;;;;;13.30;6.67;;;4.40;1.00;;;;;;5018571;28;20529;-44
2021/04/04 00:40:33;;;;;;;13.30;6.23;;;4.50;1.00;;;;;;5017294;28;20475;-43
2021/04/04 00:42:59;;;;;;;18.73;7.63;;;4.40;1.00;;;;;;5018742;28;20885;-43
2021/04/04 00:45:28;;;;;;;18.20;7.63;;;4.50;1.00;;;;;;5018744;28;20464;-46
2021/04/04 00:47:56;;;;;;;16.67;6.73;;;4.50;1.00;;;;;;5019567;28;20525;-43
2021/04/04 00:50:24;;;;;;;16.43;7.47;;;4.50;1.00;;;;;;5011842;28;20472;-43
2021/04/04 00:52:51;;;;;;;16.43;7.20;;;4.50;1.00;;;;;;5019127;28;20472;-45
2021/04/04 00:55:18;;;;;;;22.60;8.20;;;4.50;1.00;;;;;;5018781;28;20775;-49
2021/04/04 00:57:45;;;;;;;14.53;7.10;;;4.50;1.00;;;;;;5017386;28;20464;-43
2021/04/04 01:00:13;;;;;;;19.90;7.13;;;4.50;1.00;;;;;;5018854;28;20468;-44
2021/04/04 01:02:42;;;;;;;22.03;7.83;;;4.40;1.00;;;;;;5018621;28;20475;-44
2021/04/04 01:05:11;;;;;;;9.30;5.83;;;4.40;1.00;;;;;;5011740;28;20932;-43
2021/04/04 01:07:38;;;;;;;17.00;6.80;;;4.40;1.00;;;;;;5014322;28;20496;-43
2021/04/04 01:10:08;;;;;;;22.50;6.57;;;4.40;1.00;;;;;;5017899;28;20468;-47
2021/04/04 01:12:40;;;;;;;22.60;8.70;;;4.30;1.00;;;;;;5018064;28;20538;-44
2021/04/04 01:15:12;;;;;;;20.87;6.80;;;4.20;1.00;;;;;;5017248;28;20468;-48
2021/04/04 01:17:41;;;;;;;18.20;7.20;;;4.20;1.00;;;;;;5018686;28;20479;-43
2021/04/04 01:20:14;;;;;;;18.50;6.30;;;4.10;1.00;;;;;;5017426;28;20475;-44
2021/04/04 01:23:23;;;;;;;16.67;6.73;;;4.00;1.00;;;;;;5019321;28;20472;-45
2021/04/04 01:25:54;;;;;;;14.47;6.27;;;4.00;1.00;;;;;;4938086;29;20463;-50
2021/04/04 01:28:27;;;;;;;12.80;6.40;;;3.90;1.00;;;;;;4949169;28;20507;-43
2021/04/04 01:30:54;;;;;;;21.50;7.93;;;3.90;1.00;;;;;;5017497;28;20892;-45
2021/04/04 01:33:22;;;;;;;20.50;7.20;;;3.80;1.00;;;;;;5018135;28;20472;-46
2021/04/04 01:35:52;;;;;;;30.17;8.33;;;3.80;1.00;;;;;;5017878;28;20467;-43
2021/04/04 01:38:23;;;;;;;20.07;7.57;;;3.70;1.00;;;;;;5017855;28;20955;-46
2021/04/04 01:40:55;;;;;;;22.13;7.50;;;3.60;1.00;;;;;;5018358;28;20562;-44
2021/04/04 01:43:24;;;;;;;21.70;8.40;;;3.50;1.00;;;;;;5017266;28;20904;-43
2021/04/04 01:45:53;;;;;;;15.30;6.97;;;3.50;3.10;;;;;;5018351;28;20472;-44
2021/04/04 01:48:20;;;;;;;17.80;7.67;;;3.50;8.80;;;;;;5017521;28;20562;-47
2021/04/04 01:50:47;;;;;;;15.63;7.80;;;3.50;9.00;;;;;;5002991;28;20889;-43
2021/04/04 01:53:15;;;;;;;16.60;7.63;;;3.60;9.30;;;;;;5017098;28;20467;-46
2021/04/04 01:55:42;;;;;;;18.93;8.13;;;3.60;24.70;;;;;;5016762;28;20478;-46
2021/04/04 01:58:10;;;;;;;17.83;7.10;;;3.60;12.00;;;;;;5018044;28;20885;-46
2021/04/04 02:00:40;;;;;;;19.97;8.10;;;3.70;7.00;;;;;;5016631;28;20468;-43
2021/04/04 02:03:07;;;;;;;18.53;7.37;;;3.70;1.00;;;;;;5010110;28;20468;-46
2021/04/04 02:05:35;;;;;;;16.73;6.83;;;3.80;1.00;;;;;;5012463;28;20499;-45
2021/04/04 02:08:07;;;;;;;12.57;7.43;;;3.80;1.00;;;;;;5011218;28;20990;-44
2021/04/04 02:10:37;;;;;;;15.80;6.07;;;3.80;1.00;;;;;;5003706;28;20905;-43
2021/04/04 02:13:05;;;;;;;18.90;7.10;;;3.90;1.00;;;;;;5011743;28;20810;-43
2021/04/04 02:15:33;;;;;;;21.20;7.33;;;3.80;1.00;;;;;;5014325;28;20598;-43
2021/04/04 02:18:01;;;;;;;18.30;7.50;;;3.80;1.00;;;;;;5017317;28;20772;-46
2021/04/04 02:20:31;;;;;;;21.03;8.20;;;3.80;1.00;;;;;;5017281;28;20468;-42
2021/04/04 02:23:00;;;;;;;19.40;7.50;;;3.80;1.00;;;;;;5009545;28;20464;-42
2021/04/04 02:25:27;;;;;;;18.47;7.87;;;3.90;1.00;;;;;;5016992;28;20844;-44
2021/04/04 02:27:54;;;;;;;24.07;8.50;;;3.90;1.00;;;;;;5017707;28;20558;-43
2021/04/04 02:30:21;;;;;;;17.90;7.27;;;3.90;1.00;;;;;;5016494;28;20468;-45
2021/04/04 02:32:54;;;;;;;16.67;7.57;;;4.00;1.00;;;;;;5017092;28;20472;-43
2021/04/04 02:35:29;;;;;;;20.53;7.70;;;4.00;1.00;;;;;;5016423;28;20475;-45
2021/04/04 02:37:59;;;;;;;19.57;9.03;;;4.00;1.00;;;;;;5017391;28;20522;-43
2021/04/04 02:40:27;;;;;;;19.43;7.17;;;4.10;1.00;;;;;;5009893;28;20464;-44
2021/04/04 02:42:55;;;;;;;19.37;8.07;;;4.20;1.00;;;;;;5016109;28;20503;-44
2021/04/04 02:45:24;;;;;;;15.27;6.97;;;4.20;1.00;;;;;;5017276;28;20475;-45
2021/04/04 02:47:57;;;;;;;21.20;8.07;;;4.20;1.00;;;;;;5016296;28;20595;-43
2021/04/04 02:50:27;;;;;;;18.47;7.40;;;4.20;1.00;;;;;;5016916;28;20471;-43
2021/04/04 02:52:58;;;;;;;23.07;8.27;;;4.20;1.00;;;;;;5016013;28;20472;-43
2021/04/04 02:55:26;;;;;;;17.70;8.27;;;4.30;1.00;;;;;;5016915;28;20487;-43
2021/04/04 02:57:53;;;;;;;15.23;7.20;;;4.40;1.00;;;;;;5016832;28;20502;-44
2021/04/04 03:00:22;;;;;;;18.17;7.50;;;4.30;1.00;;;;;;5016380;28;20567;-44
2021/04/04 03:02:52;;;;;;;15.73;7.80;;;4.30;1.00;;;;;;5012907;28;20936;-43
2021/04/04 03:05:23;;;;;;;22.43;7.80;;;4.30;1.00;;;;;;5008947;28;20476;-44
2021/04/04 03:07:52;;;;;;;15.13;7.00;;;4.30;1.00;;;;;;5014564;28;20514;-46
2021/04/04 03:10:19;;;;;;;19.53;8.67;;;4.30;1.00;;;;;;5002801;28;20460;-44
2021/04/04 03:12:48;;;;;;;21.67;7.73;;;4.20;1.00;;;;;;5004261;28;20456;-45
2021/04/04 03:15:17;;;;;;;21.40;8.27;;;4.20;1.00;;;;;;5020501;28;20470;-46
2021/04/04 03:17:46;;;;;;;21.83;9.13;;;4.20;1.00;;;;;;5020090;28;20464;-47
2021/04/04 03:20:15;;;;;;;20.13;8.37;;;4.20;1.00;;;;;;5020472;28;20463;-45
2021/04/04 03:22:44;;;;;;;17.17;6.83;;;4.30;1.00;;;;;;5020013;28;20519;-46
2021/04/04 03:25:13;;;;;;;19.70;8.10;;;4.20;1.00;;;;;;5020997;28;20547;-50
2021/04/04 03:27:43;;;;;;;17.57;8.90;;;4.20;1.00;;;;;;5020691;28;20464;-46
2021/04/04 03:30:34;;;;;;;18.97;8.20;;;4.20;1.00;;;;;;5020971;28;20924;-49
2021/04/04 03:33:01;;;;;;;15.33;8.30;;;4.20;1.00;;;;;;5020520;28;20514;-47
2021/04/04 03:35:29;;;;;;;20.00;8.13;;;4.10;1.00;;;;;;5020344;28;20468;-47
2021/04/04 03:37:58;;;;;;;16.50;8.47;;;4.10;1.00;;;;;;5020798;28;20502;-45
2021/04/04 03:40:25;;;;;;;21.67;9.00;;;4.10;1.00;;;;;;5001125;28;20818;-48
2021/04/04 03:42:53;;;;;;;19.20;8.40;;;4.10;1.00;;;;;;5000830;28;20473;-46
2021/04/04 03:45:22;;;;;;;19.30;8.23;;;4.20;1.00;;;;;;5000926;28;20507;-47
2021/04/04 03:47:49;;;;;;;21.10;8.40;;;4.20;1.00;;;;;;5000963;28;20933;-47
2021/04/04 03:50:18;;;;;;;40.17;9.50;;;4.20;1.00;;;;;;5000849;28;20465;-46
2021/04/04 03:52:46;;;;;;;21.37;8.53;;;4.20;1.00;;;;;;5001076;28;20471;-47
2021/04/04 03:55:17;;;;;;;15.03;7.50;;;4.20;1.00;;;;;;5000479;28;20464;-45
2021/04/04 03:57:45;;;;;;;21.37;8.00;;;4.30;1.00;;;;;;5000463;28;20545;-47
2021/04/04 04:00:14;;;;;;;17.80;8.07;;;4.20;1.00;;;;;;5000504;28;20465;-45
2021/04/04 04:02:43;;;;;;;34.67;8.87;;;4.20;1.00;;;;;;4998749;28;20537;-47
2021/04/04 04:05:11;;;;;;;40.30;8.57;;;4.20;1.00;;;;;;5010517;28;20479;-43
2021/04/04 04:07:40;;;;;;;20.00;7.57;;;4.20;1.00;;;;;;5019031;28;20551;-44
2021/04/04 04:10:08;;;;;;;23.23;7.20;;;4.20;1.00;;;;;;5002877;28;20461;-47
2021/04/04 04:12:37;;;;;;;21.73;7.57;;;4.20;1.00;;;;;;5002724;28;20503;-43
2021/04/04 04:15:07;;;;;;;22.53;8.30;;;4.10;1.00;;;;;;5018488;28;20471;-43
2021/04/04 04:17:33;;;;;;;22.37;7.70;;;4.10;1.00;;;;;;5019621;28;20464;-43
2021/04/04 04:20:01;;;;;;;17.80;7.43;;;4.10;1.00;;;;;;5020059;28;20470;-47
2021/04/04 04:22:28;;;;;;;23.00;8.30;;;4.10;1.00;;;;;;5018581;28;20753;-44
2021/04/04 04:24:55;;;;;;;21.60;7.57;;;4.10;1.00;;;;;;5018876;28;20468;-43
2021/04/04 04:27:23;;;;;;;13.97;7.20;;;4.10;1.00;;;;;;5019315;28;20464;-45
2021/04/04 04:29:50;;;;;;;18.87;8.53;;;4.10;1.00;;;;;;5019623;28;20496;-47
2021/04/04 04:32:20;;;;;;;14.80;7.07;;;4.20;1.00;;;;;;5019984;28;20499;-50
2021/04/04 04:34:50;;;;;;;18.70;8.37;;;4.20;1.00;;;;;;5019351;28;20562;-46
2021/04/04 04:37:18;;;;;;;13.67;8.53;;;4.20;1.00;;;;;;5019739;28;20508;-44
2021/04/04 04:39:46;;;;;;;15.30;8.13;;;4.20;1.00;;;;;;5018966;28;20515;-45
2021/04/04 04:42:14;;;;;;;20.53;8.97;;;4.10;1.00;;;;;;5019452;28;20464;-46
2021/04/04 04:44:44;;;;;;;20.80;7.70;;;4.10;1.00;;;;;;5019004;28;20464;-45
2021/04/04 04:47:12;;;;;;;18.20;7.60;;;4.10;1.00;;;;;;5018785;28;20471;-49
2021/04/04 04:49:42;;;;;;;17.70;8.07;;;4.10;1.00;;;;;;5019428;28;20503;-46
2021/04/04 04:52:09;;;;;;;11.50;6.30;;;4.20;1.00;;;;;;5019296;28;20465;-43
2021/04/04 04:54:35;;;;;;;22.50;7.07;;;4.20;1.00;;;;;;5018831;28;20468;-44
2021/04/04 04:57:02;;;;;;;16.70;8.30;;;4.10;1.00;;;;;;5017983;28;20558;-47
2021/04/04 04:59:30;;;;;;;24.13;8.77;;;4.10;1.00;;;;;;5019083;28;20459;-44
2021/04/04 05:01:56;;;;;;;13.60;7.37;;;4.20;1.00;;;;;;5018850;28;20464;-46
2021/04/04 05:04:23;;;;;;;16.90;7.90;;;4.20;1.00;;;;;;5007664;28;20795;-46
2021/04/04 05:06:52;;;;;;;12.80;8.13;;;4.20;1.00;;;;;;5017783;28;20480;-44
2021/04/04 05:09:20;;;;;;;19.03;7.47;;;4.10;1.00;;;;;;5018502;28;20499;-44
2021/04/04 05:11:48;;;;;;;17.97;7.20;;;4.10;1.00;;;;;;5018819;28;20815;-46
2021/04/04 05:14:16;;;;;;;24.63;7.77;;;4.20;1.00;;;;;;5017292;28;20468;-46
2021/04/04 05:16:43;;;;;;;25.60;8.03;;;4.20;1.00;;;;;;5018942;28;20496;-47
2021/04/04 05:19:11;;;;;;;19.60;7.63;;;4.20;1.00;;;;;;5017435;28;20475;-46
2021/04/04 05:21:39;;;;;;;16.40;7.80;;;4.20;1.00;;;;;;5017377;28;20460;-45
2021/04/04 05:24:12;;;;;;;27.60;8.70;;;4.20;1.00;;;;;;5017784;28;20471;-48
2021/04/04 05:26:43;;;;;;;25.77;11.43;;;4.20;1.00;;;;;;5017627;28;20909;-45
2021/04/04 05:29:11;;;;;;;24.93;11.10;;;4.30;1.00;;;;;;5018286;28;20809;-46
2021/04/04 05:31:45;;;;;;;26.30;13.83;;;4.30;1.00;;;;;;5017212;28;20475;-44
2021/04/04 05:34:13;;;;;;;23.80;13.60;;;4.30;1.00;;;;;;5018493;28;20467;-42
2021/04/04 05:36:48;;;;;;;22.27;13.10;;;4.30;1.00;;;;;;5017548;28;20554;-45
2021/04/04 05:39:18;;;;;;;27.80;14.00;;;4.40;1.00;;;;;;5015203;28;20460;-43
2021/04/04 05:41:49;;;;;;;25.90;14.00;;;4.40;1.00;;;;;;5014682;28;20456;-44
2021/04/04 05:44:26;;;;;;;41.13;15.23;;;4.30;1.00;;;;;;5015071;28;20496;-46
2021/04/04 05:47:00;;;;;;;33.03;14.30;;;4.40;1.00;;;;;;5014653;28;20472;-44
2021/04/04 05:49:40;;;;;;;26.70;13.20;;;4.40;1.00;;;;;;5016451;28;20550;-43
2021/04/04 05:52:20;;;;;;;33.67;19.13;;;4.40;1.00;;;;;;5012476;28;20525;-45
2021/04/04 05:55:07;;;;;;;31.73;20.93;;;4.40;1.00;;;;;;5016172;28;20521;-46
2021/04/04 05:57:38;;;;;;;26.47;17.80;;;4.40;1.00;;;;;;5017186;28;20483;-47
2021/04/04 06:00:07;;;;;;;29.43;19.13;;;4.50;1.00;;;;;;5016513;28;20471;-49
2021/04/04 06:03:04;;;;;;;23.03;16.70;;;4.60;1.00;;;;;;5012144;28;21077;-47
2021/04/04 06:06:02;;;;;;;31.30;17.57;;;4.60;1.00;;;;;;5010626;28;20952;-43
2021/04/04 06:08:48;;;;;;;26.60;15.77;;;4.60;1.00;;;;;;5017170;28;20484;-44
2021/04/04 06:11:27;;;;;;;29.60;18.87;;;4.40;1.00;;;;;;5017932;28;20463;-47
2021/04/04 06:14:06;;;;;;;29.37;19.13;;;4.40;1.00;;;;;;5014264;28;20936;-45
2021/04/04 06:16:41;;;;;;;36.63;22.10;;;4.40;1.00;;;;;;4998843;28;20552;-45
2021/04/04 06:19:17;;;;;;;31.60;19.40;;;4.50;1.00;;;;;;5011886;28;20468;-47
2021/04/04 06:21:54;;;;;;;30.00;19.00;;;4.60;1.00;;;;;;5014565;28;20760;-49
2021/04/04 06:24:32;;;;;;;30.23;17.40;;;4.70;1.00;;;;;;5012761;28;20503;-44
2021/04/04 06:27:12;;;;;;;25.83;19.40;;;4.70;1.00;;;;;;5015324;28;21178;-43
2021/04/04 06:30:04;;;;;;;26.20;18.87;;;4.70;1.00;;;;;;5017037;28;20498;-46
2021/04/04 06:32:42;;;;;;;28.30;19.60;;;4.70;1.00;;;;;;5016137;28;20698;-45
2021/04/04 06:35:15;;;;;;;36.03;18.93;;;4.70;1.00;;;;;;5016810;28;20881;-46
2021/04/04 06:38:10;;;;;;;29.67;18.90;;;4.70;1.00;;;;;;5015377;28;20472;-43
2021/04/04 06:40:43;;;;;;;26.70;18.83;;;4.80;1.00;;;;;;5014598;28;20472;-44
2021/04/04 06:43:23;;;;;;;28.20;20.67;;;4.80;1.00;;;;;;5017590;28;20538;-43
2021/04/04 06:46:00;;;;;;;35.97;20.77;;;4.80;1.00;;;;;;5015363;28;21033;-43
2021/04/04 06:48:49;;;;;;;36.40;20.70;;;4.80;1.00;;;;;;5016904;28;20525;-46
2021/04/04 06:51:30;;;;;;;32.40;21.13;;;4.80;1.00;;;;;;5015000;28;20471;-50
2021/04/04 06:54:14;;;;;;;25.37;19.13;;;4.70;1.00;;;;;;5017656;28;20459;-43
2021/04/04 06:57:04;;;;;;;32.23;20.27;;;4.70;1.00;;;;;;5015120;28;20518;-44
2021/04/04 06:59:42;;;;;;;40.73;25.17;;;4.90;1.00;;;;;;5017090;28;20456;-47
2021/04/04 07:02:09;;;;;;;33.77;23.10;;;4.90;1.00;;;;;;5015198;28;20944;-45
2021/04/04 07:04:40;;;;;;;38.10;22.97;;;5.00;1.00;;;;;;5007730;28;20464;-47
2021/04/04 07:07:38;;;;;;;31.70;22.60;;;5.10;1.00;;;;;;5015589;28;20490;-47
2021/04/04 07:10:41;;;;;;;31.10;22.63;;;5.10;1.00;;;;;;5007520;28;20800;-44
2021/04/04 07:13:48;;;;;;;33.83;22.90;;;5.10;1.00;;;;;;5015695;28;20498;-46
2021/04/04 07:16:53;;;;;;;40.47;24.17;;;5.10;1.00;;;;;;5009470;28;20471;-44
2021/04/04 07:19:38;;;;;;;31.37;22.37;;;5.20;1.00;;;;;;5015666;28;20460;-49
2021/04/04 07:22:22;;;;;;;32.83;21.00;;;5.20;1.00;;;;;;5014714;28;20459;-45
2021/04/04 07:25:17;;;;;;;40.03;24.10;;;5.20;1.00;;;;;;5014709;28;20938;-49
2021/04/04 07:28:04;;;;;;;30.17;22.63;;;5.20;1.00;;;;;;4983782;28;20478;-47
2021/04/04 07:30:35;;;;;;;28.10;22.80;;;5.10;1.00;;;;;;5016913;28;20749;-49
2021/04/04 07:33:23;;;;;;;26.80;21.83;;;5.10;1.00;;;;;;5014822;28;20474;-47
2021/04/04 07:35:55;;;;;;;30.20;22.30;;;5.10;1.00;;;;;;5016776;28;20467;-45
2021/04/04 07:38:29;;;;;;;28.73;21.10;;;5.10;1.00;;;;;;5014758;28;20464;-43
2021/04/04 07:41:03;;;;;;;33.03;22.67;;;5.10;1.00;;;;;;5016705;28;20562;-44
2021/04/04 07:43:39;;;;;;;29.03;23.03;;;5.10;1.00;;;;;;5015058;28;20478;-46
2021/04/04 07:46:19;;;;;;;25.97;22.33;;;5.10;1.00;;;;;;5014565;28;20464;-45
2021/04/04 07:49:01;;;;;;;31.43;22.90;;;5.20;1.00;;;;;;5005683;28;20491;-45
2021/04/04 07:51:32;;;;;;;29.00;20.13;;;5.40;1.00;;;;;;5015041;28;20900;-43
2021/04/04 07:54:03;;;;;;;24.50;21.30;;;5.50;1.00;;;;;;5018770;28;20911;-46
2021/04/04 07:56:38;;;;;;;30.00;21.13;;;5.50;1.00;;;;;;5016206;28;20889;-43
2021/04/04 07:59:14;;;;;;;25.60;18.87;;;5.60;1.00;;;;;;5017717;28;20438;-50
2021/04/04 08:01:50;;;;;;;20.67;18.30;;;5.60;1.00;;;;;;5017814;28;20755;-45
2021/04/04 08:04:25;;;;;;;28.50;18.43;;;5.60;1.00;;;;;;5003505;28;20830;-47
2021/04/04 08:06:57;;;;;;;29.67;18.50;;;5.50;1.00;;;;;;5011438;28;20534;-51
2021/04/04 08:09:31;;;;;;;29.17;19.10;;;5.40;1.00;;;;;;5008932;28;20801;-50
2021/04/04 08:12:10;;;;;;;112.97;75.73;;;5.40;1.00;;;;;;5017257;28;20529;-50
2021/04/04 08:14:50;;;;;;;30.37;22.70;;;5.30;1.00;;;;;;5013616;28;20543;-50
2021/04/04 08:17:20;;;;;;;24.70;18.97;;;5.20;1.00;;;;;;5018153;28;20467;-47
2021/04/04 08:19:56;;;;;;;27.43;17.90;;;5.30;1.00;;;;;;5017861;28;20518;-44
2021/04/04 08:22:30;;;;;;;25.97;16.73;;;5.50;1.00;;;;;;5006462;28;20885;-50
2021/04/04 08:25:02;;;;;;;21.63;16.87;;;5.60;1.00;;;;;;5014267;28;20463;-46
2021/04/04 08:27:33;;;;;;;32.70;18.77;;;5.70;1.00;;;;;;5015698;28;20929;-45
2021/04/04 08:30:06;;;;;;;30.17;15.27;;;5.70;1.00;;;;;;5016789;28;20503;-43
2021/04/04 08:32:39;;;;;;;27.20;16.40;;;5.80;1.00;;;;;;5018027;28;20464;-43
2021/04/04 08:35:13;;;;;;;28.27;16.33;;;5.80;1.00;;;;;;5015360;28;20913;-47
2021/04/04 08:37:47;;;;;;;28.73;15.67;;;5.80;1.00;;;;;;5010832;28;20469;-45
2021/04/04 08:40:15;;;;;;;32.80;18.00;;;5.80;1.00;;;;;;5010261;28;20464;-47
2021/04/04 08:42:43;;;;;;;27.00;18.23;;;5.70;1.00;;;;;;5019075;28;20483;-44
2021/04/04 08:45:15;;;;;;;32.63;18.60;;;5.90;1.00;;;;;;5015718;28;20460;-47
2021/04/04 08:47:44;;;;;;;27.17;16.53;;;5.80;1.00;;;;;;5017811;28;20468;-46
2021/04/04 08:50:14;;;;;;;22.97;16.13;;;5.80;1.00;;;;;;5017889;28;20492;-47
2021/04/04 08:52:51;;;;;;;22.13;15.60;;;5.70;1.00;;;;;;5018780;28;20460;-45
2021/04/04 08:55:24;;;;;;;19.10;14.30;;;5.70;1.00;;;;;;5015677;28;20464;-49
2021/04/04 08:57:53;;;;;;;25.33;17.87;;;5.50;1.00;;;;;;5016926;28;20467;-50
2021/04/04 09:00:24;;;;;;;25.23;17.83;;;5.60;1.00;;;;;;5016591;28;20527;-49
2021/04/04 09:02:58;;;;;;;25.60;18.33;;;5.50;1.00;;;;;;5010001;28;20476;-47
2021/04/04 09:05:33;;;;;;;25.83;18.20;;;5.50;1.00;;;;;;5013867;28;21017;-42
2021/04/04 09:08:04;;;;;;;26.37;16.97;;;5.60;1.00;;;;;;5015518;28;20460;-43
2021/04/04 09:10:34;;;;;;;24.40;18.10;;;5.60;1.00;;;;;;5017337;28;20459;-46
2021/04/04 09:13:07;;;;;;;21.20;16.10;;;5.70;1.00;;;;;;5015898;28;20464;-47
2021/04/04 09:15:44;;;;;;;19.00;15.77;;;5.80;1.00;;;;;;5013242;28;20496;-44
2021/04/04 09:18:11;;;;;;;18.47;13.93;;;5.80;1.00;;;;;;5017030;28;20927;-46
2021/04/04 09:20:41;;;;;;;15.20;13.00;;;5.70;1.00;;;;;;5016842;28;20475;-47
2021/04/04 09:23:09;;;;;;;17.60;14.57;;;5.60;1.00;;;;;;5017016;28;20529;-43
2021/04/04 09:25:39;;;;;;;16.33;13.03;;;5.60;1.00;;;;;;5016143;28;20909;-44
2021/04/04 09:28:07;;;;;;;16.20;11.57;;;5.70;1.00;;;;;;5018003;28;20475;-47
2021/04/04 09:30:40;;;;;;;17.03;13.07;;;5.50;1.00;;;;;;5015531;28;20471;-46
2021/04/04 09:33:10;;;;;;;16.83;12.57;;;5.50;1.00;;;;;;5016927;28;20888;-45
2021/04/04 09:35:44;;;;;;;23.43;14.83;;;5.50;1.00;;;;;;5017539;28;20484;-47
2021/04/04 09:38:12;;;;;;;24.60;15.40;;;5.80;1.00;;;;;;5016689;28;20468;-49
2021/04/04 09:40:41;;;;;;;21.50;16.53;;;5.80;1.00;;;;;;5017542;28;20460;-46
2021/04/04 09:43:11;;;;;;;23.47;18.03;;;5.80;1.00;;;;;;5015755;28;20475;-45
2021/04/04 09:45:40;;;;;;;27.57;18.27;;;6.00;1.00;;;;;;5017421;28;20522;-47
2021/04/04 09:48:18;;;;;;;24.03;16.93;;;5.90;1.00;;;;;;5016500;28;20470;-48
2021/04/04 09:50:46;;;;;;;28.30;18.40;;;5.90;1.00;;;;;;5017535;28;20522;-49
2021/04/04 09:53:13;;;;;;;303.30;151.77;;;6.00;1.00;;;;;;5017273;28;20468;-45
2021/04/04 09:55:45;;;;;;;42.10;26.97;;;6.00;1.00;;;;;;5013489;28;20456;-51
2021/04/04 09:58:14;;;;;;;22.37;17.30;;;6.10;1.00;;;;;;5002568;28;20508;-46
2021/04/04 10:00:46;;;;;;;24.63;17.00;;;6.10;1.00;;;;;;5016476;28;20468;-51
2021/04/04 10:03:14;;;;;;;27.10;16.90;;;6.20;1.00;;;;;;5006493;28;20476;-46
2021/04/04 10:05:46;;;;;;;27.33;17.50;;;6.50;1.00;;;;;;5009072;28;20809;-46
2021/04/04 10:08:17;;;;;;;20.20;15.93;;;6.60;1.00;;;;;;5017482;28;20873;-49
2021/04/04 10:10:45;;;;;;;26.37;20.50;;;6.40;1.00;;;;;;5004428;28;20470;-48
2021/04/04 10:13:13;;;;;;;20.97;15.87;;;6.40;1.00;;;;;;5014574;28;20472;-44
2021/04/04 10:15:42;;;;;;;25.40;16.07;;;6.40;1.00;;;;;;5017500;28;20460;-51
2021/04/04 10:18:08;;;;;;;18.17;13.97;;;6.50;1.00;;;;;;5015502;28;20464;-46
2021/04/04 10:20:39;;;;;;;18.17;13.53;;;6.50;1.00;;;;;;5017774;28;20765;-50
2021/04/04 10:23:07;;;;;;;21.77;14.57;;;6.50;1.00;;;;;;5015743;28;20487;-49
2021/04/04 10:25:34;;;;;;;21.00;14.83;;;6.70;1.00;;;;;;5016015;28;20526;-47
2021/04/04 10:28:09;;;;;;;20.20;14.30;;;6.80;1.00;;;;;;5017007;28;20474;-44
2021/04/04 10:30:39;;;;;;;19.90;14.73;;;6.70;1.00;;;;;;5009769;28;20479;-47
2021/04/04 10:33:21;;;;;;;15.93;13.03;;;6.70;1.00;;;;;;5017626;28;20472;-46
2021/04/04 10:35:48;;;;;;;19.87;13.60;;;6.70;1.00;;;;;;5015185;28;20526;-53
2021/04/04 10:38:20;;;;;;;13.93;10.50;;;6.40;1.00;;;;;;5017233;28;20896;-43
2021/04/04 10:40:50;;;;;;;16.73;9.93;;;6.70;1.00;;;;;;5014916;28;20912;-47
2021/04/04 10:43:21;;;;;;;15.50;10.80;;;6.90;1.00;;;;;;5017550;28;20464;-53
2021/04/04 10:46:06;;;;;;;11.40;10.10;;;7.00;1.00;;;;;;5016030;28;20475;-46
2021/04/04 10:48:36;;;;;;;15.13;10.70;;;7.00;1.00;;;;;;5015566;28;20535;-44
2021/04/04 10:51:05;;;;;;;21.20;12.00;;;7.00;1.00;;;;;;5016556;28;20916;-48
2021/04/04 10:53:33;;;;;;;20.30;10.60;;;6.80;1.00;;;;;;5015117;28;20458;-45
2021/04/04 10:56:00;;;;;;;12.63;10.20;;;6.60;1.00;;;;;;5017388;28;20468;-44
2021/04/04 10:58:28;;;;;;;12.30;9.70;;;6.50;1.00;;;;;;5013710;28;20468;-46
2021/04/04 11:01:00;;;;;;;12.20;9.00;;;6.50;1.00;;;;;;5016644;28;20464;-45
2021/04/04 11:03:27;;;;;;;13.43;9.00;;;6.70;1.00;;;;;;5009243;28;20475;-44
2021/04/04 11:05:54;;;;;;;13.57;9.93;;;6.70;1.00;;;;;;5012852;28;20587;-47
2021/04/04 11:08:21;;;;;;;14.37;9.17;;;6.50;1.00;;;;;;5015324;28;20478;-47
2021/04/04 11:10:52;;;;;;;12.43;8.23;;;6.90;1.00;;;;;;5015744;28;20468;-45
2021/04/04 11:13:21;;;;;;;15.20;9.17;;;7.00;1.00;;;;;;5015842;28;20547;-45
2021/04/04 11:15:51;;;;;;;12.30;9.27;;;7.00;1.00;;;;;;5016535;28;20861;-47
2021/04/04 11:18:24;;;;;;;16.70;9.97;;;7.20;1.00;;;;;;5015412;28;20467;-47
2021/04/04 11:20:57;;;;;;;14.63;10.60;;;7.40;1.00;;;;;;5015877;28;20468;-45
2021/04/04 11:23:27;;;;;;;13.90;10.87;;;7.20;1.00;;;;;;5016184;28;20499;-47
2021/04/04 11:25:54;;;;;;;17.17;10.93;;;7.20;1.00;;;;;;5020119;28;20464;-53
2021/04/04 11:28:24;;;;;;;24.13;14.87;;;7.20;1.00;;;;;;5018658;28;20905;-46
2021/04/04 11:30:51;;;;;;;20.70;13.50;;;7.40;1.00;;;;;;5019832;28;20984;-45
2021/04/04 11:33:40;;;;;;;19.30;12.30;;;7.30;1.00;;;;;;5019713;28;20468;-44
2021/04/04 11:36:11;;;;;;;18.70;14.23;;;7.40;1.00;;;;;;5016948;28;20468;-44
2021/04/04 11:38:41;;;;;;;23.33;14.57;;;7.20;1.00;;;;;;5018988;28;20937;-45
2021/04/04 11:41:15;;;;;;;21.90;17.57;;;7.10;1.00;;;;;;5019397;28;20468;-44
2021/04/04 11:43:43;;;;;;;25.80;20.30;;;7.20;1.00;;;;;;5020210;28;20472;-46
2021/04/04 11:46:55;;;;;;;29.83;20.70;;;7.30;1.00;;;;;;5018750;28;20468;-45
2021/04/04 11:49:35;;;;;;;29.27;20.60;;;7.20;1.00;;;;;;4965848;28;20742;-45
2021/04/04 11:52:38;;;;;;;25.23;20.23;;;7.10;1.00;;;;;;5019650;28;20478;-50
2021/04/04 11:55:08;;;;;;;29.10;21.30;;;7.00;1.00;;;;;;5014929;28;20486;-47
2021/04/04 11:57:38;;;;;;;29.00;21.30;;;7.00;1.00;;;;;;5018425;28;20462;-47
2021/04/04 12:00:10;;;;;;;30.43;21.97;;;7.10;1.00;;;;;;5001048;28;20449;-46
2021/04/04 12:02:47;;;;;;;30.53;21.87;;;6.90;1.00;;;;;;5009198;28;20468;-44
2021/04/04 12:05:15;;;;;;;28.27;20.33;;;7.00;1.00;;;;;;5009578;28;20469;-44
2021/04/04 12:07:45;;;;;;;33.77;22.67;;;6.90;1.00;;;;;;5013435;28;20475;-42
2021/04/04 12:10:15;;;;;;;25.47;20.50;;;7.20;1.00;;;;;;5001001;28;20499;-45
2021/04/04 12:12:45;;;;;;;30.67;20.80;;;7.30;1.00;;;;;;5010323;28;20481;-46
2021/04/04 12:15:13;;;;;;;37.00;23.13;;;7.40;1.00;;;;;;4999578;28;20782;-46
2021/04/04 12:17:45;;;;;;;35.07;26.10;;;7.30;1.00;;;;;;5018388;28;20475;-46
2021/04/04 12:20:12;;;;;;;36.93;28.97;;;7.20;1.00;;;;;;5018595;28;20464;-44
2021/04/04 12:22:41;;;;;;;37.60;26.70;;;7.20;1.00;;;;;;5005205;28;20543;-49
2021/04/04 12:25:10;;;;;;;33.20;26.10;;;7.00;1.00;;;;;;5004423;28;20464;-43
2021/04/04 12:27:39;;;;;;;35.57;26.07;;;7.10;1.00;;;;;;5001034;28;20782;-45
2021/04/04 12:30:14;;;;;;;32.50;25.00;;;7.00;1.00;;;;;;5007217;28;20484;-48
2021/04/04 12:32:44;;;;;;;33.60;24.70;;;7.10;1.00;;;;;;5011259;28;20468;-44
2021/04/04 12:35:11;;;;;;;35.70;26.23;;;7.10;1.00;;;;;;5017461;28;20472;-51
2021/04/04 12:37:39;;;;;;;31.20;23.80;;;7.20;1.00;;;;;;5019513;28;20467;-44
2021/04/04 12:40:09;;;;;;;30.10;24.33;;;7.40;1.00;;;;;;5016670;28;20562;-46
2021/04/04 12:42:37;;;;;;;33.80;24.20;;;7.30;1.00;;;;;;5018860;28;20460;-45
2021/04/04 12:45:10;;;;;;;33.00;23.00;;;7.40;1.00;;;;;;5016623;28;20468;-53
2021/04/04 12:47:40;;;;;;;27.23;22.50;;;7.40;1.00;;;;;;5019171;28;20563;-45
2021/04/04 12:50:12;;;;;;;29.80;23.50;;;7.50;1.00;;;;;;5006935;28;21007;-48
2021/04/04 12:52:41;;;;;;;36.43;24.73;;;7.50;1.00;;;;;;5001340;28;20526;-48
2021/04/04 12:55:30;;;;;;;29.90;24.80;;;7.60;1.00;;;;;;5008772;28;20540;-51
2021/04/04 12:58:01;;;;;;;31.53;24.10;;;7.70;1.00;;;;;;5006686;28;20456;-47
2021/04/04 13:00:30;;;;;;;29.43;22.27;;;7.60;1.00;;;;;;5014895;28;20456;-48
2021/04/04 13:03:02;;;;;;;38.93;26.33;;;7.60;1.00;;;;;;5010535;28;20473;-45
2021/04/04 13:05:43;;;;;;;32.50;24.40;;;7.60;1.00;;;;;;5005437;28;20492;-50
2021/04/04 13:08:28;;;;;;;28.47;23.23;;;7.60;1.00;;;;;;5016402;28;20460;-49
2021/04/04 13:10:57;;;;;;;30.00;20.03;;;7.60;1.00;;;;;;5013766;28;20456;-50
2021/04/04 13:13:29;;;;;;;29.00;21.13;;;7.40;1.00;;;;;;5010310;28;20461;-44
2021/04/04 13:15:58;;;;;;;26.00;22.20;;;7.50;1.00;;;;;;5008484;28;20531;-50